createdAt,value
2023-02-03T00:00:31.231Z,1005.8
2023-02-03T00:01:46.546Z,1005.9
2023-02-03T00:03:02.842Z,1005.8
2023-02-03T00:04:19.131Z,1005.8
2023-02-03T00:06:51.723Z,1005.7
2023-02-03T00:08:08.021Z,1005.7
2023-02-03T00:09:24.320Z,1005.7
2023-02-03T00:10:40.583Z,1005.7
2023-02-03T00:11:56.888Z,1005.7
2023-02-03T00:13:13.181Z,1005.7
2023-02-03T00:14:29.473Z,1005.6
2023-02-03T00:15:45.758Z,1005.7
2023-02-03T00:17:02.066Z,1005.6
2023-02-03T00:18:17.378Z,1005.7
2023-02-03T00:19:33.666Z,1005.6
2023-02-03T00:22:06.253Z,1005.5
2023-02-03T00:23:21.580Z,1005.5
2023-02-03T00:24:37.982Z,1005.5
2023-02-03T00:25:54.283Z,1005.5
2023-02-03T00:27:10.581Z,1005.4
2023-02-03T00:29:43.155Z,1005.4
2023-02-03T00:30:59.459Z,1005.3
2023-02-03T00:32:15.756Z,1005.3
2023-02-03T00:33:32.049Z,1005.2
2023-02-03T00:34:48.354Z,1005.2
2023-02-03T00:37:20.922Z,1005.1
2023-02-03T00:38:37.221Z,1005
2023-02-03T00:39:53.518Z,1005
2023-02-03T00:41:08.835Z,1004.9
2023-02-03T00:42:25.123Z,1005
2023-02-03T00:43:41.416Z,1004.9
2023-02-03T00:44:57.712Z,1004.9
2023-02-03T00:46:14.013Z,1004.9
2023-02-03T00:47:30.313Z,1004.8
2023-02-03T00:48:46.600Z,1004.8
2023-02-03T00:50:02.904Z,1004.8
2023-02-03T00:51:19.188Z,1004.7
2023-02-03T00:52:35.478Z,1004.7
2023-02-03T00:53:51.771Z,1004.7
2023-02-03T00:55:08.064Z,1004.6
2023-02-03T00:56:23.390Z,1004.6
2023-02-03T00:58:55.001Z,1004.5
2023-02-03T01:00:11.287Z,1004.4
2023-02-03T01:01:27.582Z,1004.4
2023-02-03T01:02:43.871Z,1004.5
2023-02-03T01:04:00.179Z,1004.5
2023-02-03T01:05:15.499Z,1004.5
2023-02-03T01:06:31.795Z,1004.4
2023-02-03T01:07:48.087Z,1004.4
2023-02-03T01:09:04.369Z,1004.4
2023-02-03T01:10:20.675Z,1004.4
2023-02-03T01:11:35.986Z,1004.3
2023-02-03T01:12:51.301Z,1004.4
2023-02-03T01:14:07.585Z,1004.4
2023-02-03T01:15:23.883Z,1004.4
2023-02-03T01:16:40.174Z,1004.3
2023-02-03T01:17:56.476Z,1004.3
2023-02-03T01:19:12.779Z,1004.3
2023-02-03T01:20:29.063Z,1004.3
2023-02-03T01:21:45.370Z,1004.3
2023-02-03T01:23:01.651Z,1004.2
2023-02-03T01:24:17.948Z,1004.2
2023-02-03T01:25:34.247Z,1004.1
2023-02-03T01:26:50.534Z,1004.1
2023-02-03T01:28:06.837Z,1004.1
2023-02-03T01:29:23.128Z,1004.1
2023-02-03T01:30:38.438Z,1004.1
2023-02-03T01:31:54.725Z,1004.1
2023-02-03T01:33:11.020Z,1004
2023-02-03T01:34:27.328Z,1003.9
2023-02-03T01:35:43.613Z,1003.9
2023-02-03T01:38:16.217Z,1003.9
2023-02-03T01:39:32.505Z,1003.8
2023-02-03T01:40:48.795Z,1003.7
2023-02-03T01:42:05.099Z,1003.7
2023-02-03T01:43:21.388Z,1003.8
2023-02-03T01:44:37.679Z,1003.7
2023-02-03T01:45:53.974Z,1003.6
2023-02-03T01:47:09.292Z,1003.6
2023-02-03T01:48:25.572Z,1003.6
2023-02-03T01:49:41.869Z,1003.6
2023-02-03T01:50:58.173Z,1003.7
2023-02-03T01:52:14.454Z,1003.6
2023-02-03T01:53:30.763Z,1003.6
2023-02-03T01:54:47.065Z,1003.6
2023-02-03T01:56:03.352Z,1003.6
2023-02-03T01:57:19.641Z,1003.6
2023-02-03T01:58:35.933Z,1003.6
2023-02-03T01:59:52.238Z,1003.6
2023-02-03T02:01:08.532Z,1003.5
2023-02-03T02:02:24.825Z,1003.6
2023-02-03T02:03:40.142Z,1003.5
2023-02-03T02:04:56.423Z,1003.5
2023-02-03T02:06:12.713Z,1003.5
2023-02-03T02:08:45.318Z,1003.4
2023-02-03T02:10:01.596Z,1003.3
2023-02-03T02:11:17.896Z,1003.4
2023-02-03T02:12:34.186Z,1003.4
2023-02-03T02:13:50.497Z,1003.4
2023-02-03T02:15:06.792Z,1003.4
2023-02-03T02:16:23.087Z,1003.4
2023-02-03T02:17:39.372Z,1003.4
2023-02-03T02:18:55.669Z,1003.3
2023-02-03T02:20:10.986Z,1003.3
2023-02-03T02:21:27.282Z,1003.2
2023-02-03T02:23:59.862Z,1003.1
2023-02-03T02:25:16.157Z,1003.1
2023-02-03T02:26:32.444Z,1003.1
2023-02-03T02:27:48.748Z,1003.1
2023-02-03T02:29:05.039Z,1003
2023-02-03T02:30:21.337Z,1003
2023-02-03T02:31:37.627Z,1002.9
2023-02-03T02:32:53.926Z,1002.9
2023-02-03T02:34:10.229Z,1002.8
2023-02-03T02:35:26.507Z,1002.9
2023-02-03T02:36:41.822Z,1002.9
2023-02-03T02:37:58.116Z,1002.9
2023-02-03T02:39:14.425Z,1002.9
2023-02-03T02:40:30.716Z,1002.9
2023-02-03T02:41:47.008Z,1002.8
2023-02-03T02:43:03.294Z,1002.7
2023-02-03T02:45:35.884Z,1002.7
2023-02-03T02:46:52.185Z,1002.6
2023-02-03T02:48:08.468Z,1002.7
2023-02-03T02:49:24.775Z,1002.6
2023-02-03T02:50:41.060Z,1002.6
2023-02-03T02:51:57.369Z,1002.6
2023-02-03T02:53:12.673Z,1002.5
2023-02-03T02:54:28.972Z,1002.6
2023-02-03T02:57:01.567Z,1002.6
2023-02-03T02:58:17.856Z,1002.7
2023-02-03T02:59:34.150Z,1002.6
2023-02-03T03:00:50.444Z,1002.7
2023-02-03T03:02:06.729Z,1002.5
2023-02-03T03:03:23.039Z,1002.5
2023-02-03T03:04:39.321Z,1002.5
2023-02-03T03:05:55.622Z,1002.5
2023-02-03T03:07:11.914Z,1002.5
2023-02-03T03:08:28.205Z,1002.4
2023-02-03T03:09:43.531Z,1002.4
2023-02-03T03:10:59.814Z,1002.4
2023-02-03T03:12:16.118Z,1002.4
2023-02-03T03:13:32.411Z,1002.3
2023-02-03T03:14:48.694Z,1002.3
2023-02-03T03:17:21.283Z,1002.2
2023-02-03T03:18:37.582Z,1002.2
2023-02-03T03:19:53.887Z,1002.2
2023-02-03T03:21:10.180Z,1002.2
2023-02-03T03:22:26.462Z,1002.2
2023-02-03T03:23:42.770Z,1002.2
2023-02-03T03:24:59.050Z,1002.2
2023-02-03T03:26:14.371Z,1002.2
2023-02-03T03:27:30.674Z,1002.2
2023-02-03T03:28:46.966Z,1002.2
2023-02-03T03:30:03.253Z,1002.4
2023-02-03T03:32:35.854Z,1002.3
2023-02-03T03:35:08.432Z,1002.2
2023-02-03T03:36:23.758Z,1002.2
2023-02-03T03:37:39.050Z,1002.2
2023-02-03T03:38:55.344Z,1002.2
2023-02-03T03:40:11.649Z,1002.1
2023-02-03T03:41:27.948Z,1002.1
2023-02-03T03:42:44.227Z,1002
2023-02-03T03:44:00.526Z,1002
2023-02-03T03:45:16.833Z,1001.9
2023-02-03T03:46:33.111Z,1001.9
2023-02-03T03:47:49.424Z,1001.9
2023-02-03T03:49:05.707Z,1001.8
2023-02-03T03:50:21.024Z,1001.7
2023-02-03T03:51:36.342Z,1001.7
2023-02-03T03:52:52.637Z,1001.6
2023-02-03T03:54:08.918Z,1001.7
2023-02-03T03:57:57.809Z,1001.6
2023-02-03T03:59:14.111Z,1001.6
2023-02-03T04:00:30.405Z,1001.5
2023-02-03T04:03:02.991Z,1001.4
2023-02-03T04:04:19.278Z,1001.4
2023-02-03T04:05:35.578Z,1001.4
2023-02-03T04:06:51.862Z,1001.5
2023-02-03T04:08:07.190Z,1001.6
2023-02-03T04:09:22.498Z,1001.6
2023-02-03T04:10:38.793Z,1001.7
2023-02-03T04:11:55.094Z,1001.7
2023-02-03T04:13:11.380Z,1001.6
2023-02-03T04:14:27.678Z,1001.7
2023-02-03T04:15:43.974Z,1001.7
2023-02-03T04:17:00.261Z,1001.7
2023-02-03T04:18:16.565Z,1001.7
2023-02-03T04:19:32.844Z,1001.7
2023-02-03T04:20:49.142Z,1001.8
2023-02-03T04:22:04.465Z,1001.8
2023-02-03T04:23:19.784Z,1001.8
2023-02-03T04:24:36.060Z,1001.9
2023-02-03T04:25:52.372Z,1001.9
2023-02-03T04:27:08.650Z,1001.9
2023-02-03T04:28:24.954Z,1001.8
2023-02-03T04:29:41.247Z,1001.8
2023-02-03T04:30:57.552Z,1001.8
2023-02-03T04:32:13.829Z,1001.8
2023-02-03T04:33:30.138Z,1001.6
2023-02-03T04:34:46.430Z,1001.8
2023-02-03T04:36:02.715Z,1001.7
2023-02-03T04:37:19.009Z,1001.8
2023-02-03T04:38:35.321Z,1001.8
2023-02-03T04:39:51.611Z,1001.6
2023-02-03T04:41:06.908Z,1001.7
2023-02-03T04:42:23.210Z,1001.6
2023-02-03T04:43:39.512Z,1001.6
2023-02-03T04:44:55.811Z,1001.6
2023-02-03T04:46:12.092Z,1001.8
2023-02-03T04:47:28.397Z,1001.8
2023-02-03T04:48:44.694Z,1001.7
2023-02-03T04:50:00.978Z,1001.6
2023-02-03T04:51:17.280Z,1001.6
2023-02-03T04:52:33.566Z,1001.6
2023-02-03T04:53:49.857Z,1001.4
2023-02-03T04:55:06.158Z,1001.4
2023-02-03T04:56:22.454Z,1001.5
2023-02-03T04:57:37.774Z,1001.4
2023-02-03T04:58:54.057Z,1001.4
2023-02-03T05:00:10.350Z,1001.3
2023-02-03T05:01:26.642Z,1001.3
2023-02-03T05:03:59.247Z,1001.3
2023-02-03T05:05:15.537Z,1001.3
2023-02-03T05:06:31.834Z,1001.2
2023-02-03T05:07:48.114Z,1001.1
2023-02-03T05:09:04.422Z,1001
2023-02-03T05:11:37.003Z,1001.1
2023-02-03T05:12:53.307Z,1001
2023-02-03T05:14:08.615Z,1000.9
2023-02-03T05:15:24.911Z,1000.9
2023-02-03T05:16:41.192Z,1000.8
2023-02-03T05:17:57.488Z,1000.8
2023-02-03T05:19:13.793Z,1000.7
2023-02-03T05:20:29.110Z,1000.7
2023-02-03T05:21:45.406Z,1000.6
2023-02-03T05:23:01.701Z,1000.8
2023-02-03T05:24:17.977Z,1000.8
2023-02-03T05:25:34.280Z,1000.8
2023-02-03T05:26:50.586Z,1000.8
2023-02-03T05:28:06.863Z,1000.7
2023-02-03T05:29:23.169Z,1000.8
2023-02-03T05:30:39.451Z,1000.8
2023-02-03T05:31:55.765Z,1000.7
2023-02-03T05:33:12.045Z,1000.9
2023-02-03T05:34:28.354Z,1000.9
2023-02-03T05:35:44.628Z,1000.8
2023-02-03T05:36:59.955Z,1001
2023-02-03T05:38:16.248Z,1000.8
2023-02-03T05:39:32.533Z,1000.9
2023-02-03T05:40:48.833Z,1000.9
2023-02-03T05:42:05.122Z,1001
2023-02-03T05:43:21.419Z,1000.9
2023-02-03T05:44:37.716Z,1000.9
2023-02-03T05:45:54.009Z,1000.9
2023-02-03T05:47:10.298Z,1000.8
2023-02-03T05:48:26.591Z,1000.8
2023-02-03T05:49:42.898Z,1000.7
2023-02-03T05:50:59.198Z,1000.8
2023-02-03T05:52:15.489Z,1000.7
2023-02-03T05:53:30.802Z,1000.7
2023-02-03T05:54:47.086Z,1000.7
2023-02-03T05:57:19.686Z,1000.8
2023-02-03T05:58:35.974Z,1000.6
2023-02-03T05:59:52.263Z,1000.5
2023-02-03T06:01:08.572Z,1000.5
2023-02-03T06:02:24.856Z,1000.5
2023-02-03T06:03:41.157Z,1000.6
2023-02-03T06:04:57.458Z,1000.6
2023-02-03T06:06:13.749Z,1000.6
2023-02-03T06:07:30.036Z,1000.5
2023-02-03T06:08:46.331Z,1000.5
2023-02-03T06:10:01.637Z,1000.5
2023-02-03T06:11:17.949Z,1000.5
2023-02-03T06:12:34.225Z,1000.4
2023-02-03T06:13:50.515Z,1000.4
2023-02-03T06:15:06.818Z,1000.4
2023-02-03T06:16:23.124Z,1000.2
2023-02-03T06:17:39.363Z,1000.3
2023-02-03T06:18:55.643Z,1000.4
2023-02-03T06:20:11.898Z,1000.4
2023-02-03T06:21:28.146Z,1000.3
2023-02-03T06:22:44.377Z,1000.3
2023-02-03T06:24:00.627Z,1000.4
2023-02-03T06:25:16.857Z,1000.4
2023-02-03T06:26:32.132Z,1000.3
2023-02-03T06:27:48.367Z,1000.3
2023-02-03T06:29:04.609Z,1000.2
2023-02-03T06:30:20.863Z,1000.3
2023-02-03T06:31:37.084Z,1000
2023-02-03T06:34:09.586Z,1000.1
2023-02-03T06:35:25.816Z,1000.1
2023-02-03T06:36:42.063Z,1000
2023-02-03T06:37:58.299Z,1000.1
2023-02-03T06:39:14.537Z,1000
2023-02-03T06:40:30.777Z,999.9
2023-02-03T06:41:47.014Z,1000.1
2023-02-03T06:43:02.265Z,999.9
2023-02-03T06:44:18.519Z,1000
2023-02-03T06:45:34.753Z,1000
2023-02-03T06:46:51.002Z,999.9
2023-02-03T06:48:07.229Z,999.8
2023-02-03T06:49:23.487Z,999.8
2023-02-03T06:50:39.723Z,999.7
2023-02-03T06:51:55.969Z,999.7
2023-02-03T06:53:12.210Z,999.7
2023-02-03T06:54:28.442Z,999.8
2023-02-03T06:55:44.690Z,999.8
2023-02-03T06:57:00.916Z,999.7
2023-02-03T06:58:17.172Z,999.6
2023-02-03T06:59:32.429Z,999.7
2023-02-03T07:00:48.669Z,999.7
2023-02-03T07:02:04.897Z,999.7
2023-02-03T07:03:21.147Z,999.8
2023-02-03T07:04:37.388Z,999.7
2023-02-03T07:05:53.617Z,999.8
2023-02-03T07:07:09.854Z,999.7
2023-02-03T07:08:26.096Z,999.8
2023-02-03T07:09:42.343Z,999.7
2023-02-03T07:10:58.592Z,999.7
2023-02-03T07:12:14.826Z,999.7
2023-02-03T07:13:31.057Z,999.6
2023-02-03T07:14:47.318Z,999.3
2023-02-03T07:16:02.572Z,999.6
2023-02-03T07:17:18.809Z,999.5
2023-02-03T07:18:35.036Z,999.6
2023-02-03T07:19:51.283Z,999.6
2023-02-03T07:21:07.524Z,999.6
2023-02-03T07:22:23.757Z,999.4
2023-02-03T07:23:39.998Z,999.4
2023-02-03T07:24:56.251Z,999.6
2023-02-03T07:26:12.483Z,999.6
2023-02-03T07:27:28.724Z,999.5
2023-02-03T07:28:44.968Z,999.5
2023-02-03T07:30:01.217Z,999.6
2023-02-03T07:31:17.447Z,999.5
2023-02-03T07:32:32.699Z,999.6
2023-02-03T07:33:48.944Z,999.5
2023-02-03T07:35:05.179Z,999.5
2023-02-03T07:36:21.434Z,999.5
2023-02-03T07:37:37.661Z,999.5
2023-02-03T07:38:53.900Z,999.4
2023-02-03T07:40:10.147Z,999.3
2023-02-03T07:41:26.400Z,999.5
2023-02-03T07:42:42.635Z,999.5
2023-02-03T07:43:58.884Z,999.6
2023-02-03T07:45:15.123Z,999.5
2023-02-03T07:46:31.348Z,999.4
2023-02-03T07:47:47.594Z,999.5
2023-02-03T07:49:02.841Z,999.5
2023-02-03T07:50:19.083Z,999.5
2023-02-03T07:51:35.324Z,999.5
2023-02-03T07:52:51.584Z,999.3
2023-02-03T07:54:07.820Z,999.4
2023-02-03T07:55:24.049Z,999.5
2023-02-03T07:56:40.285Z,999.5
2023-02-03T07:57:56.533Z,999.2
2023-02-03T07:59:12.775Z,999.4
2023-02-03T08:00:29.026Z,999.4
2023-02-03T08:01:45.256Z,999.4
2023-02-03T08:04:17.735Z,999.2
2023-02-03T08:06:49.237Z,999.2
2023-02-03T08:08:05.480Z,999.2
2023-02-03T08:09:21.719Z,999.2
2023-02-03T08:10:37.965Z,999.2
2023-02-03T08:11:54.208Z,999.2
2023-02-03T08:13:10.437Z,999.2
2023-02-03T08:14:26.686Z,999.2
2023-02-03T08:15:42.924Z,999.1
2023-02-03T08:16:59.159Z,999.1
2023-02-03T08:18:15.405Z,999
2023-02-03T08:19:31.636Z,998.9
2023-02-03T08:20:47.874Z,998.9
2023-02-03T08:22:03.131Z,999
2023-02-03T08:23:19.375Z,999
2023-02-03T08:24:35.612Z,998.9
2023-02-03T08:25:51.863Z,999
2023-02-03T08:27:08.105Z,999.1
2023-02-03T08:28:24.341Z,999
2023-02-03T08:29:40.580Z,999
2023-02-03T08:30:56.826Z,998.7
2023-02-03T08:32:13.077Z,998.9
2023-02-03T08:33:29.315Z,998.9
2023-02-03T08:34:45.552Z,998.9
2023-02-03T08:36:01.776Z,998.9
2023-02-03T08:37:18.036Z,998.8
2023-02-03T08:39:49.532Z,998.8
2023-02-03T08:41:05.766Z,998.7
2023-02-03T08:42:22.009Z,998.7
2023-02-03T08:44:54.483Z,998.5
2023-02-03T08:46:10.718Z,998.5
2023-02-03T08:47:26.973Z,998.4
2023-02-03T08:48:43.205Z,998.4
2023-02-03T08:49:59.457Z,998.4
2023-02-03T08:51:15.685Z,998.3
2023-02-03T08:53:48.185Z,998.4
2023-02-03T08:55:03.433Z,998.4
2023-02-03T08:56:18.685Z,998.4
2023-02-03T08:57:34.923Z,998.4
2023-02-03T08:58:51.178Z,998.4
2023-02-03T09:00:07.420Z,998.3
2023-02-03T09:01:23.653Z,998.2
2023-02-03T09:02:39.887Z,998.3
2023-02-03T09:03:56.138Z,998.3
2023-02-03T09:05:12.368Z,998.3
2023-02-03T09:06:28.606Z,998.2
2023-02-03T09:07:44.857Z,998.3
2023-02-03T09:09:01.097Z,998.2
2023-02-03T09:10:16.363Z,998.3
2023-02-03T09:11:31.604Z,998.4
2023-02-03T09:12:47.862Z,998.3
2023-02-03T09:15:20.333Z,998.2
2023-02-03T09:16:36.575Z,998.3
2023-02-03T09:17:52.807Z,998.2
2023-02-03T09:19:09.066Z,998.1
2023-02-03T09:20:25.303Z,998.2
2023-02-03T09:21:41.535Z,998
2023-02-03T09:22:57.781Z,998
2023-02-03T09:24:14.025Z,998
2023-02-03T09:25:30.258Z,997.9
2023-02-03T09:26:46.497Z,997.9
2023-02-03T09:28:01.762Z,997.8
2023-02-03T09:29:18.004Z,998
2023-02-03T09:30:34.237Z,998
2023-02-03T09:31:50.470Z,998
2023-02-03T09:33:06.716Z,998
2023-02-03T09:34:22.965Z,997.9
2023-02-03T09:35:38.213Z,998
2023-02-03T09:36:54.454Z,997.8
2023-02-03T09:38:10.697Z,997.9
2023-02-03T09:39:26.947Z,997.9
2023-02-03T09:40:43.194Z,997.8
2023-02-03T09:41:59.426Z,997.7
2023-02-03T09:43:15.668Z,997.7
2023-02-03T09:44:31.903Z,997.8
2023-02-03T09:45:48.154Z,997.8
2023-02-03T09:47:04.378Z,997.7
2023-02-03T09:48:20.623Z,997.6
2023-02-03T09:49:36.859Z,997.8
2023-02-03T09:50:53.117Z,997.7
2023-02-03T09:52:08.357Z,997.6
2023-02-03T09:53:24.611Z,997.7
2023-02-03T09:54:40.852Z,997.6
2023-02-03T09:55:57.077Z,997.6
2023-02-03T09:57:13.329Z,997.6
2023-02-03T09:58:29.555Z,997.5
2023-02-03T09:59:45.798Z,997.5
2023-02-03T10:01:02.035Z,997.4
2023-02-03T10:02:18.275Z,997.4
2023-02-03T10:03:34.525Z,997.5
2023-02-03T10:04:50.772Z,997.6
2023-02-03T10:06:06.995Z,997.4
2023-02-03T10:07:23.253Z,997.5
2023-02-03T10:08:39.609Z,997.3
2023-02-03T10:09:55.852Z,997.4
2023-02-03T10:11:12.097Z,997.3
2023-02-03T10:12:28.326Z,997.4
2023-02-03T10:13:44.565Z,997.3
2023-02-03T10:16:17.057Z,997.2
2023-02-03T10:17:33.284Z,997.4
2023-02-03T10:18:49.534Z,997.3
2023-02-03T10:20:05.762Z,997.2
2023-02-03T10:21:22.003Z,997.3
2023-02-03T10:22:38.246Z,997.2
2023-02-03T10:23:54.493Z,997.2
2023-02-03T10:25:09.752Z,997
2023-02-03T10:26:25.988Z,996.9
2023-02-03T10:27:42.220Z,997
2023-02-03T10:28:58.468Z,997.1
2023-02-03T10:31:30.945Z,997.1
2023-02-03T10:32:47.188Z,997.1
2023-02-03T10:34:03.438Z,997
2023-02-03T10:35:19.669Z,996.9
2023-02-03T10:36:35.915Z,997.1
2023-02-03T10:40:24.624Z,997.3
2023-02-03T10:41:39.893Z,997.2
2023-02-03T10:42:55.139Z,997.2
2023-02-03T10:44:11.383Z,997.2
2023-02-03T10:45:27.629Z,996.8
2023-02-03T10:46:43.878Z,997
2023-02-03T10:48:00.113Z,997.2
2023-02-03T10:49:16.341Z,997.2
2023-02-03T10:50:32.594Z,997.3
2023-02-03T10:51:48.821Z,997.2
2023-02-03T10:53:05.073Z,997.3
2023-02-03T10:54:21.316Z,997.3
2023-02-03T10:55:36.570Z,997.3
2023-02-03T10:56:51.825Z,997.3
2023-02-03T10:58:08.065Z,997.2
2023-02-03T10:59:24.303Z,997.2
2023-02-03T11:00:40.543Z,997.2
2023-02-03T11:01:56.779Z,997.3
2023-02-03T11:03:13.031Z,997.3
2023-02-03T11:04:29.276Z,997.4
2023-02-03T11:05:45.516Z,997.5
2023-02-03T11:07:01.753Z,997.3
2023-02-03T11:08:17.996Z,997.1
2023-02-03T11:09:34.222Z,997.1
2023-02-03T11:10:50.464Z,997.3
2023-02-03T11:12:06.701Z,997.4
2023-02-03T11:13:21.957Z,997.3
2023-02-03T11:14:38.215Z,997.3
2023-02-03T11:17:10.692Z,997.2
2023-02-03T11:18:26.924Z,997.1
2023-02-03T11:19:43.172Z,997.3
2023-02-03T11:20:59.416Z,997.1
2023-02-03T11:22:15.650Z,997.1
2023-02-03T11:24:48.122Z,997.1
2023-02-03T11:26:04.373Z,997.1
2023-02-03T11:27:20.603Z,997
2023-02-03T11:28:36.842Z,997
2023-02-03T11:29:52.103Z,997.1
2023-02-03T11:32:24.573Z,997.1
2023-02-03T11:34:56.090Z,996.9
2023-02-03T11:36:12.332Z,997.1
2023-02-03T11:37:28.716Z,997.2
2023-02-03T11:38:45.074Z,997.2
2023-02-03T11:40:01.303Z,997.2
2023-02-03T11:41:17.538Z,997.2
2023-02-03T11:42:33.792Z,997.2
2023-02-03T11:43:50.024Z,997.1
2023-02-03T11:45:06.264Z,997.1
2023-02-03T11:46:22.504Z,997
2023-02-03T11:47:38.754Z,996.8
2023-02-03T11:48:54.984Z,996.7
2023-02-03T11:51:27.477Z,996.8
2023-02-03T11:52:43.721Z,996.8
2023-02-03T11:53:59.946Z,996.8
2023-02-03T11:55:15.218Z,996.8
2023-02-03T11:56:31.456Z,996.8
2023-02-03T11:57:47.683Z,996.7
2023-02-03T11:59:03.928Z,996.5
2023-02-03T12:00:20.182Z,996.5
2023-02-03T12:02:52.646Z,996.6
2023-02-03T12:04:07.908Z,996.6
2023-02-03T12:05:23.173Z,996.3
2023-02-03T12:06:39.413Z,996.2
2023-02-03T12:07:55.654Z,995.8
2023-02-03T12:09:11.891Z,996
2023-02-03T12:10:28.134Z,996.2
2023-02-03T12:11:44.377Z,996
2023-02-03T12:13:00.614Z,996
2023-02-03T12:14:16.850Z,996
2023-02-03T12:15:33.086Z,996.2
2023-02-03T12:18:05.565Z,996.3
2023-02-03T12:20:38.043Z,996.4
2023-02-03T12:21:53.298Z,996.4
2023-02-03T12:23:09.538Z,996.5
2023-02-03T12:24:25.792Z,996.5
2023-02-03T12:25:42.018Z,996.3
2023-02-03T12:26:58.264Z,996.4
2023-02-03T12:29:30.757Z,996.6
2023-02-03T12:30:46.979Z,996.6
2023-02-03T12:32:03.220Z,996.5
2023-02-03T12:33:19.468Z,996.4
2023-02-03T12:34:35.701Z,996.5
2023-02-03T12:35:51.956Z,996.6
2023-02-03T12:37:08.179Z,996.6
2023-02-03T12:38:23.448Z,996.6
2023-02-03T12:39:39.677Z,996.7
2023-02-03T12:40:55.932Z,996.7
2023-02-03T12:42:12.170Z,996.7
2023-02-03T12:43:28.418Z,996.7
2023-02-03T12:44:44.643Z,996.9
2023-02-03T12:46:00.898Z,997
2023-02-03T12:47:17.280Z,997.1
2023-02-03T12:48:32.537Z,996.9
2023-02-03T12:49:48.763Z,996.9
2023-02-03T12:51:05.011Z,997.3
2023-02-03T12:52:21.250Z,996.9
2023-02-03T12:53:37.491Z,997.2
2023-02-03T12:54:53.739Z,997.2
2023-02-03T12:56:09.981Z,997.3
2023-02-03T12:57:26.215Z,997.1
2023-02-03T12:58:42.445Z,997.4
2023-02-03T12:59:58.688Z,996.9
2023-02-03T13:01:13.957Z,997.1
2023-02-03T13:02:29.202Z,997.2
2023-02-03T13:03:45.449Z,997.3
2023-02-03T13:05:01.695Z,997.2
2023-02-03T13:06:17.935Z,997.3
2023-02-03T13:07:34.174Z,997.3
2023-02-03T13:10:06.653Z,997.3
2023-02-03T13:11:22.905Z,997.4
2023-02-03T13:12:39.136Z,997.4
2023-02-03T13:13:55.372Z,997.5
2023-02-03T13:15:11.625Z,997.6
2023-02-03T13:16:27.850Z,997.6
2023-02-03T13:19:00.345Z,997.7
2023-02-03T13:21:32.811Z,997.6
2023-02-03T13:22:48.072Z,997.4
2023-02-03T13:24:03.336Z,997.6
2023-02-03T13:25:19.585Z,997.5
2023-02-03T13:26:35.814Z,997.8
2023-02-03T13:27:52.059Z,997.6
2023-02-03T13:29:08.294Z,997.5
2023-02-03T13:30:24.545Z,997.4
2023-02-03T13:31:40.774Z,997.6
2023-02-03T13:32:57.020Z,997.5
2023-02-03T13:34:13.271Z,997.9
2023-02-03T13:35:29.512Z,997.5
2023-02-03T13:36:44.757Z,997.7
2023-02-03T13:38:00.015Z,997.5
2023-02-03T13:39:16.270Z,997.5
2023-02-03T13:41:48.750Z,997.8
2023-02-03T13:43:04.978Z,997.9
2023-02-03T13:44:21.236Z,997.8
2023-02-03T13:45:37.459Z,997.9
2023-02-03T13:46:53.716Z,997.8
2023-02-03T13:49:26.179Z,997.8
2023-02-03T13:50:41.460Z,997.8
2023-02-03T13:51:57.682Z,997.8
2023-02-03T13:53:12.952Z,997.7
2023-02-03T13:54:28.202Z,997.9
2023-02-03T13:55:44.447Z,997.8
2023-02-03T13:58:16.930Z,998
2023-02-03T14:00:49.410Z,997.9
2023-02-03T14:02:05.660Z,997.9
2023-02-03T14:03:21.884Z,997.8
2023-02-03T14:05:54.369Z,997.8
2023-02-03T14:07:10.613Z,997.9
2023-02-03T14:08:26.858Z,997.8
2023-02-03T14:09:43.104Z,997.7
2023-02-03T14:13:30.833Z,997.9
2023-02-03T14:14:46.092Z,997.7
2023-02-03T14:16:01.362Z,997.9
2023-02-03T14:17:17.599Z,997.8
2023-02-03T14:18:33.829Z,998
2023-02-03T14:19:50.069Z,997.8
2023-02-03T14:21:06.321Z,997.9
2023-02-03T14:22:22.557Z,997.9
2023-02-03T14:23:38.799Z,997.9
2023-02-03T14:24:55.041Z,997.9
2023-02-03T14:26:11.276Z,998
2023-02-03T14:27:27.514Z,997.9
2023-02-03T14:28:43.765Z,997.8
2023-02-03T14:29:59.031Z,997.9
2023-02-03T14:31:15.385Z,997.7
2023-02-03T14:32:31.626Z,997.9
2023-02-03T14:33:47.868Z,998
2023-02-03T14:35:04.111Z,998.1
2023-02-03T14:36:20.350Z,998
2023-02-03T14:37:36.588Z,998.2
2023-02-03T14:38:52.836Z,998.3
2023-02-03T14:40:09.071Z,998.2
2023-02-03T14:41:25.313Z,998.2
2023-02-03T14:42:41.556Z,998.2
2023-02-03T14:43:56.805Z,998.3
2023-02-03T14:45:12.067Z,998.4
2023-02-03T14:46:28.316Z,998.3
2023-02-03T14:47:44.543Z,998.2
2023-02-03T14:50:17.029Z,998.7
2023-02-03T14:51:33.279Z,998.5
2023-02-03T14:52:49.502Z,998.3
2023-02-03T14:54:05.758Z,998.4
2023-02-03T14:55:21.987Z,998.1
2023-02-03T14:57:54.472Z,998.2
2023-02-03T14:59:10.724Z,998.3
2023-02-03T15:00:25.979Z,998.2
2023-02-03T15:01:41.236Z,998.3
2023-02-03T15:02:57.475Z,998.3
2023-02-03T15:04:13.718Z,998.2
2023-02-03T15:05:29.950Z,998.3
2023-02-03T15:06:46.186Z,998.3
2023-02-03T15:08:02.442Z,998.5
2023-02-03T15:09:18.668Z,998.4
2023-02-03T15:10:34.910Z,998.4
2023-02-03T15:11:51.149Z,998.4
2023-02-03T15:13:07.395Z,998.3
2023-02-03T15:14:22.651Z,998.4
2023-02-03T15:16:54.150Z,998.2
2023-02-03T15:18:10.397Z,998.3
2023-02-03T15:20:42.874Z,998.4
2023-02-03T15:21:59.128Z,998.5
2023-02-03T15:23:15.358Z,998.4
2023-02-03T15:24:31.610Z,998.5
2023-02-03T15:25:47.849Z,998.5
2023-02-03T15:27:04.089Z,998.5
2023-02-03T15:28:20.328Z,998.5
2023-02-03T15:29:36.563Z,998.6
2023-02-03T15:30:52.803Z,998.6
2023-02-03T15:32:08.056Z,998.6
2023-02-03T15:33:24.309Z,998.6
2023-02-03T15:34:40.530Z,998.8
2023-02-03T15:35:56.788Z,998.7
2023-02-03T15:37:13.028Z,998.8
2023-02-03T15:38:29.266Z,998.7
2023-02-03T15:39:45.507Z,998.8
2023-02-03T15:41:01.745Z,998.8
2023-02-03T15:42:17.987Z,998.8
2023-02-03T15:43:34.225Z,998.8
2023-02-03T15:44:50.465Z,998.8
2023-02-03T15:46:06.705Z,998.8
2023-02-03T15:47:22.944Z,998.7
2023-02-03T15:48:38.210Z,998.9
2023-02-03T15:49:54.448Z,998.8
2023-02-03T15:51:10.691Z,998.9
2023-02-03T15:52:26.916Z,998.9
2023-02-03T15:53:43.162Z,998.9
2023-02-03T15:54:59.415Z,998.9
2023-02-03T15:56:15.653Z,998.9
2023-02-03T15:57:31.895Z,999.1
2023-02-03T15:58:48.116Z,999
2023-02-03T16:00:04.364Z,999.1
2023-02-03T16:01:20.614Z,999
2023-02-03T16:02:36.847Z,999
2023-02-03T16:03:53.089Z,999.1
2023-02-03T16:05:08.356Z,999
2023-02-03T16:06:24.583Z,999
2023-02-03T16:07:40.822Z,999
2023-02-03T16:08:57.078Z,999
2023-02-03T16:10:13.301Z,999
2023-02-03T16:11:29.543Z,999
2023-02-03T16:12:45.797Z,999
2023-02-03T16:14:02.037Z,999.3
2023-02-03T16:15:18.278Z,999
2023-02-03T16:16:34.514Z,999
2023-02-03T16:17:50.743Z,999
2023-02-03T16:19:06.994Z,999.2
2023-02-03T16:20:23.232Z,999.2
2023-02-03T16:21:38.495Z,999.1
2023-02-03T16:22:54.731Z,999.2
2023-02-03T16:24:10.971Z,999.2
2023-02-03T16:25:27.219Z,999.2
2023-02-03T16:26:43.444Z,999.2
2023-02-03T16:27:59.701Z,999.1
2023-02-03T16:29:15.930Z,999.1
2023-02-03T16:30:32.182Z,999.2
2023-02-03T16:31:48.469Z,999.2
2023-02-03T16:33:04.754Z,999.2
2023-02-03T16:34:21.068Z,999.2
2023-02-03T16:35:37.345Z,999.3
2023-02-03T16:36:53.646Z,999.2
2023-02-03T16:38:10.000Z,999.4
2023-02-03T16:39:26.349Z,999.4
2023-02-03T16:40:42.655Z,999.4
2023-02-03T16:41:58.955Z,999.4
2023-02-03T16:43:15.243Z,999.3
2023-02-03T16:44:31.534Z,999.4
2023-02-03T16:45:47.825Z,999.5
2023-02-03T16:47:04.132Z,999.5
2023-02-03T16:48:20.369Z,999.5
2023-02-03T16:49:36.613Z,999.4
2023-02-03T16:50:52.852Z,999.5
2023-02-03T16:52:09.106Z,999.5
2023-02-03T16:53:25.342Z,999.6
2023-02-03T16:54:40.588Z,999.6
2023-02-03T16:55:56.831Z,999.6
2023-02-03T16:57:13.082Z,999.5
2023-02-03T16:58:29.307Z,999.5
2023-02-03T16:59:45.552Z,999.6
2023-02-03T17:01:01.792Z,999.6
2023-02-03T17:02:18.035Z,999.7
2023-02-03T17:03:34.271Z,999.6
2023-02-03T17:04:50.525Z,999.5
2023-02-03T17:06:06.768Z,999.7
2023-02-03T17:07:23.055Z,999.7
2023-02-03T17:08:39.308Z,999.7
2023-02-03T17:09:55.594Z,999.8
2023-02-03T17:11:11.891Z,999.7
2023-02-03T17:12:27.200Z,999.9
2023-02-03T17:13:43.501Z,999.7
2023-02-03T17:14:59.786Z,1000.1
2023-02-03T17:16:16.089Z,999.8
2023-02-03T17:17:32.379Z,999.7
2023-02-03T17:18:48.680Z,999.7
2023-02-03T17:20:04.983Z,999.9